Time;durP1;ratioP1;P1;durP2;ratioP2;P2;SDS_P1;SDS_P2;PMS_P1;PMS_P2;Temp;Humidity;BMP_temperature;BMP_pressure;BME280_temperature;BME280_humidity;BME280_pressure;Samples;Min_cycle;Max_cycle;Signal;HPM_P1;HPM_P2
2021/03/31 00:01:20;;;;;;;28.98;16.50;;;256.40;2176.00;;;;;;5075892;28;20032;-90
2021/03/31 00:03:45;;;;;;;32.17;16.73;;;256.50;2176.00;;;;;;5075437;28;20537;-90
2021/03/31 00:06:11;;;;;;;21.65;14.93;;;256.50;2150.40;;;;;;5076315;28;20059;-87
2021/03/31 00:08:38;;;;;;;25.15;16.60;;;256.60;2150.40;;;;;;5075953;28;20024;-86
2021/03/31 00:11:05;;;;;;;25.88;15.93;;;256.70;2124.80;;;;;;5076081;28;20032;-86
2021/03/31 00:13:31;;;;;;;29.73;16.13;;;256.70;2124.80;;;;;;5076166;28;20031;-85
2021/03/31 00:15:57;;;;;;;21.48;14.98;;;256.70;2124.80;;;;;;5078959;28;20020;-84
2021/03/31 00:18:24;;;;;;;29.10;15.95;;;256.70;2150.40;;;;;;5082689;28;20027;-84
2021/03/31 00:20:50;;;;;;;24.35;15.65;;;256.60;2150.40;;;;;;5086726;28;20032;-84
2021/03/31 00:23:19;;;;;;;26.17;16.52;;;256.40;2176.00;;;;;;5085772;28;20048;-84
2021/03/31 00:25:45;;;;;;;25.20;16.05;;;256.30;2201.60;;;;;;5080639;28;20032;-85
2021/03/31 00:28:12;;;;;;;26.52;15.25;;;256.30;2201.60;;;;;;5080105;28;20165;-88
2021/03/31 00:30:38;;;;;;;23.55;14.65;;;256.40;2176.00;;;;;;5078878;28;20043;-83
2021/03/31 00:33:05;;;;;;;25.45;14.98;;;256.40;2201.60;;;;;;5079291;28;20036;-85
2021/03/31 00:35:31;;;;;;;29.58;16.95;;;256.30;2176.00;;;;;;5079139;28;20060;-89
2021/03/31 00:37:57;;;;;;;28.23;15.55;;;256.40;2176.00;;;;;;5079073;28;20028;-85
2021/03/31 00:40:26;;;;;;;21.77;13.75;;;256.40;2176.00;;;;;;5078774;28;20457;-86
2021/03/31 00:42:52;;;;;;;26.85;16.38;;;256.30;2201.60;;;;;;5079124;28;20036;-84
2021/03/31 00:45:18;;;;;;;19.50;13.25;;;256.30;2201.60;;;;;;5079017;28;20031;-87
2021/03/31 00:47:47;;;;;;;39.70;23.83;;;256.30;2176.00;;;;;;5078839;28;20036;-84
2021/03/31 00:50:18;;;;;;;51.67;36.80;;;256.40;2176.00;;;;;;5078940;28;20031;-85
2021/03/31 00:52:47;;;;;;;31.73;18.77;;;256.40;2150.40;;;;;;5078704;28;20115;-85
2021/03/31 00:55:15;;;;;;;21.35;15.70;;;256.50;2150.40;;;;;;5079034;28;20085;-84
2021/03/31 00:57:41;;;;;;;23.17;13.70;;;256.50;2150.40;;;;;;5078521;28;20070;-88
2021/03/31 01:00:09;;;;;;;18.98;12.57;;;256.50;2176.00;;;;;;5078678;28;20028;-85
2021/03/31 01:02:36;;;;;;;23.52;13.27;;;256.30;2201.60;;;;;;5078691;28;20468;-85
2021/03/31 01:05:06;;;;;;;27.00;16.25;;;256.30;2201.60;;;;;;5078717;28;20537;-84
2021/03/31 01:07:32;;;;;;;25.67;14.48;;;256.20;2201.60;;;;;;5078222;28;20406;-84
2021/03/31 01:09:58;;;;;;;29.05;16.83;;;256.30;2176.00;;;;;;5078501;28;20051;-84
2021/03/31 01:13:11;;;;;;;27.67;16.08;;;256.40;2176.00;;;;;;5078424;28;20050;-84
2021/03/31 01:15:47;;;;;;;22.92;15.38;;;256.30;2176.00;;;;;;4979029;28;20047;-85
2021/03/31 01:18:32;;;;;;;27.20;15.80;;;256.30;2176.00;;;;;;4974341;28;20027;-85
2021/03/31 01:21:19;;;;;;;23.38;15.65;;;256.50;2176.00;;;;;;4978509;28;20040;-87
2021/03/31 01:24:12;;;;;;;27.58;18.00;;;256.50;2150.40;;;;;;4978382;28;20027;-85
2021/03/31 01:26:53;;;;;;;24.33;14.57;;;256.50;2150.40;;;;;;4985352;28;20175;-84
2021/03/31 01:29:27;;;;;;;22.92;15.02;;;256.50;2150.40;;;;;;4985826;28;20041;-84
2021/03/31 01:31:56;;;;;;;22.20;14.38;;;256.50;2176.00;;;;;;4982700;28;20142;-85
2021/03/31 01:34:35;;;;;;;21.98;13.65;;;256.40;2176.00;;;;;;4978361;28;20117;-87
2021/03/31 01:37:06;;;;;;;21.33;14.48;;;256.50;2150.40;;;;;;4981453;28;20069;-83
2021/03/31 01:39:36;;;;;;;28.33;15.65;;;256.50;2150.40;;;;;;4982846;28;20038;-85
2021/03/31 01:42:03;;;;;;;24.42;14.88;;;256.40;2176.00;;;;;;4981646;28;20049;-84
2021/03/31 01:44:28;;;;;;;23.80;14.85;;;256.40;2176.00;;;;;;4978148;28;20100;-86
2021/03/31 01:46:57;;;;;;;19.65;13.73;;;256.40;2176.00;;;;;;4978388;28;20113;-84
2021/03/31 01:49:25;;;;;;;26.48;14.40;;;256.40;2150.40;;;;;;4978427;28;20109;-84
2021/03/31 01:52:03;;;;;;;27.27;13.80;;;256.40;2150.40;;;;;;5046353;28;20039;-89
2021/03/31 01:54:29;;;;;;;22.13;13.30;;;256.40;2150.40;;;;;;5067634;28;20062;-84
2021/03/31 01:56:56;;;;;;;23.30;14.43;;;256.40;2150.40;;;;;;5085300;28;20115;-87
2021/03/31 01:59:24;;;;;;;24.27;17.08;;;256.30;2176.00;;;;;;5085361;28;20040;-85
2021/03/31 02:01:52;;;;;;;22.25;13.18;;;256.30;2176.00;;;;;;5095318;28;20015;-83
2021/03/31 02:04:18;;;;;;;23.38;12.85;;;256.20;2201.60;;;;;;5094616;28;20020;-82
2021/03/31 02:06:45;;;;;;;23.75;12.77;;;256.20;2201.60;;;;;;5092539;28;20024;-84
2021/03/31 02:09:14;;;;;;;24.08;14.52;;;256.10;2201.60;;;;;;5084727;28;20024;-83
2021/03/31 02:11:43;;;;;;;24.27;13.38;;;256.10;2201.60;;;;;;5078736;28;20032;-83
2021/03/31 02:14:12;;;;;;;23.33;13.25;;;256.10;2201.60;;;;;;5077937;28;20490;-82
2021/03/31 02:16:38;;;;;;;26.23;13.60;;;256.10;2201.60;;;;;;5080637;28;20047;-85
2021/03/31 02:19:05;;;;;;;20.40;14.15;;;256.10;2201.60;;;;;;5077613;28;20039;-85
2021/03/31 02:21:32;;;;;;;24.88;13.27;;;256.10;2201.60;;;;;;5077714;28;20029;-83
2021/03/31 02:23:59;;;;;;;26.25;17.88;;;256.10;2201.60;;;;;;5077130;28;20032;-83
2021/03/31 02:26:26;;;;;;;24.02;14.35;;;256.00;2176.00;;;;;;5077534;28;20117;-84
2021/03/31 02:28:53;;;;;;;24.08;14.00;;;256.10;2201.60;;;;;;5070672;28;20069;-84
2021/03/31 02:31:21;;;;;;;26.40;17.23;;;256.10;2201.60;;;;;;5077389;28;20360;-83
2021/03/31 02:33:48;;;;;;;43.45;27.83;;;256.10;2201.60;;;;;;5076968;28;20467;-84
2021/03/31 02:36:15;;;;;;;38.17;23.60;;;256.10;2176.00;;;;;;5076943;28;20467;-84
2021/03/31 02:38:44;;;;;;;25.00;17.08;;;256.10;2176.00;;;;;;5076397;28;20387;-85
2021/03/31 02:41:11;;;;;;;38.13;24.88;;;256.10;2176.00;;;;;;5076254;28;20047;-83
2021/03/31 02:43:43;;;;;;;24.88;18.55;;;256.00;2201.60;;;;;;5075756;28;20483;-85
2021/03/31 02:46:13;;;;;;;28.48;19.30;;;256.00;2201.60;;;;;;5076710;28;20031;-86
2021/03/31 02:48:39;;;;;;;27.23;16.13;;;256.00;2201.60;;;;;;5076309;28;20461;-84
2021/03/31 02:51:06;;;;;;;25.40;14.75;;;256.00;2227.20;;;;;;5076395;28;20051;-85
2021/03/31 02:53:32;;;;;;;22.63;14.18;;;231.30;2227.20;;;;;;5094449;28;20089;-85
2021/03/31 02:56:01;;;;;;;23.42;14.52;;;231.20;2252.80;;;;;;5076305;28;20028;-83
2021/03/31 02:58:27;;;;;;;22.75;14.25;;;231.20;2227.20;;;;;;5076412;28;20036;-84
2021/03/31 03:00:53;;;;;;;23.52;15.15;;;231.20;2227.20;;;;;;5075909;28;20155;-84
2021/03/31 03:03:19;;;;;;;27.40;17.20;;;231.20;2252.80;;;;;;5076862;28;20032;-84
2021/03/31 03:05:45;;;;;;;24.33;15.95;;;231.20;2252.80;;;;;;5077313;28;20048;-84
2021/03/31 03:08:11;;;;;;;25.50;16.45;;;231.20;2227.20;;;;;;5076634;28;20031;-84
2021/03/31 03:10:40;;;;;;;29.63;15.95;;;231.10;2252.80;;;;;;5076267;28;20036;-84
2021/03/31 03:13:07;;;;;;;26.63;15.85;;;231.10;2252.80;;;;;;5076190;28;20483;-83
2021/03/31 03:15:34;;;;;;;22.23;16.13;;;231.10;2252.80;;;;;;5076096;28;20405;-85
2021/03/31 03:18:00;;;;;;;25.08;17.35;;;231.00;2252.80;;;;;;5076751;28;20111;-84
2021/03/31 03:20:27;;;;;;;25.30;16.63;;;231.00;2252.80;;;;;;5076301;28;20139;-85
2021/03/31 03:22:55;;;;;;;34.17;16.67;;;231.00;2252.80;;;;;;5076236;28;20028;-84
2021/03/31 03:25:24;;;;;;;28.30;15.50;;;230.90;2252.80;;;;;;5076179;28;20024;-85
2021/03/31 03:27:51;;;;;;;23.88;15.85;;;230.90;2252.80;;;;;;5076138;28;20070;-86
2021/03/31 03:30:18;;;;;;;23.77;14.75;;;230.90;2252.80;;;;;;5076223;28;20031;-83
2021/03/31 03:32:47;;;;;;;21.05;14.93;;;230.90;2252.80;;;;;;5076178;28;20029;-85
2021/03/31 03:35:18;;;;;;;23.80;15.23;;;231.00;2252.80;;;;;;5076026;28;20070;-84
2021/03/31 03:37:45;;;;;;;21.58;14.75;;;231.00;2252.80;;;;;;5075525;28;20028;-84
2021/03/31 03:40:13;;;;;;;28.33;13.73;;;231.00;2252.80;;;;;;5075643;28;20388;-84
2021/03/31 03:42:39;;;;;;;21.48;15.13;;;231.00;2252.80;;;;;;5075344;28;20040;-85
2021/03/31 03:45:06;;;;;;;25.02;16.58;;;230.90;2252.80;;;;;;5075652;28;20357;-84
2021/03/31 03:47:32;;;;;;;30.20;15.48;;;230.90;2252.80;;;;;;5094015;28;20028;-85
2021/03/31 03:49:59;;;;;;;25.02;14.48;;;230.90;2252.80;;;;;;5076195;28;20028;-82
2021/03/31 03:52:26;;;;;;;34.08;18.13;;;230.80;2252.80;;;;;;5078678;28;20027;-82
2021/03/31 03:54:53;;;;;;;29.75;18.88;;;230.80;2252.80;;;;;;5078759;28;20028;-84
2021/03/31 03:57:28;;;;;;;34.70;20.73;;;230.60;2252.80;;;;;;5079889;28;20016;-83
2021/03/31 03:59:55;;;;;;;42.58;25.90;;;230.40;2252.80;;;;;;5079563;28;20078;-84
2021/03/31 04:02:21;;;;;;;34.65;22.45;;;205.60;2252.80;;;;;;5079843;28;20062;-84
2021/03/31 04:04:47;;;;;;;38.90;22.83;;;205.70;2252.80;;;;;;5080124;28;20036;-87
2021/03/31 04:07:13;;;;;;;33.15;21.23;;;230.40;2252.80;;;;;;5079788;28;20111;-85
2021/03/31 04:09:45;;;;;;;40.35;24.95;;;230.50;2252.80;;;;;;5079506;28;20095;-84
2021/03/31 04:12:12;;;;;;;45.88;27.77;;;230.60;2252.80;;;;;;5079552;28;20016;-85
2021/03/31 04:14:40;;;;;;;44.88;29.05;;;230.60;2252.80;;;;;;5079484;28;20024;-83
2021/03/31 04:17:10;;;;;;;52.42;32.53;;;230.60;2252.80;;;;;;5079426;28;20471;-83
2021/03/31 04:19:38;;;;;;;52.22;31.15;;;230.40;2252.80;;;;;;5079851;28;20126;-84
2021/03/31 04:22:10;;;;;;;54.17;31.85;;;205.60;2252.80;;;;;;5080108;28;20024;-83
2021/03/31 04:24:36;;;;;;;60.63;36.60;;;205.60;2252.80;;;;;;5079989;28;20111;-86
2021/03/31 04:27:03;;;;;;;51.50;32.65;;;205.70;2252.80;;;;;;5080805;28;20034;-84
2021/03/31 04:29:30;;;;;;;59.67;35.05;;;230.40;2252.80;;;;;;5087188;28;20095;-84
2021/03/31 04:31:56;;;;;;;98.70;52.58;;;205.60;2252.80;;;;;;5100583;28;20020;-82
2021/03/31 04:34:22;;;;;;;100.57;54.85;;;205.50;2252.80;;;;;;5095032;28;20030;-85
2021/03/31 04:36:48;;;;;;;89.65;48.25;;;205.50;2252.80;;;;;;5094734;28;20043;-83
2021/03/31 04:39:15;;;;;;;185.45;104.35;;;205.40;2252.80;;;;;;5083723;28;20468;-85
2021/03/31 04:41:41;;;;;;;98.65;59.33;;;205.60;2252.80;;;;;;5087109;28;20051;-83
2021/03/31 04:44:07;;;;;;;86.95;51.20;;;205.70;2252.80;;;;;;5082362;28;20020;-83
2021/03/31 04:46:33;;;;;;;91.40;53.40;;;205.70;2252.80;;;;;;5079516;28;20099;-83
2021/03/31 04:48:58;;;;;;;86.40;51.00;;;205.70;2252.80;;;;;;5078573;28;20061;-84
2021/03/31 04:51:24;;;;;;;82.25;47.78;;;205.70;2252.80;;;;;;5079306;28;20024;-83
2021/03/31 04:53:50;;;;;;;75.90;44.10;;;230.40;2252.80;;;;;;5078888;28;20028;-83
2021/03/31 04:56:16;;;;;;;82.45;49.67;;;230.40;2252.80;;;;;;5079203;28;20464;-83
2021/03/31 04:58:42;;;;;;;73.88;47.20;;;230.40;2252.80;;;;;;5079738;28;20032;-83
2021/03/31 05:01:07;;;;;;;78.82;47.92;;;205.70;2252.80;;;;;;5078780;28;20089;-84
2021/03/31 05:03:33;;;;;;;77.32;46.15;;;230.50;2252.80;;;;;;5078892;28;20032;-83
2021/03/31 05:05:59;;;;;;;76.55;45.85;;;230.50;2252.80;;;;;;5077955;28;20077;-84
2021/03/31 05:08:24;;;;;;;69.97;45.65;;;230.50;2252.80;;;;;;5093849;28;20476;-85
2021/03/31 05:10:50;;;;;;;73.38;47.42;;;230.60;2252.80;;;;;;5096657;28;20032;-84
2021/03/31 05:13:17;;;;;;;83.18;47.80;;;230.60;2252.80;;;;;;5078727;28;20035;-87
2021/03/31 05:15:46;;;;;;;74.88;46.83;;;230.60;2252.80;;;;;;5078252;28;20542;-83
2021/03/31 05:18:12;;;;;;;85.32;51.20;;;230.60;2252.80;;;;;;5078922;28;20035;-84
2021/03/31 05:20:38;;;;;;;89.80;51.05;;;230.70;2252.80;;;;;;5080084;28;20390;-86
2021/03/31 05:23:03;;;;;;;83.38;50.53;;;230.70;2252.80;;;;;;5078900;28;20162;-88
2021/03/31 05:25:29;;;;;;;90.18;54.08;;;230.80;2252.80;;;;;;5078470;28;20035;-88
2021/03/31 05:27:58;;;;;;;74.95;49.90;;;230.80;2252.80;;;;;;5078215;28;20029;-88
2021/03/31 05:30:39;;;;;;;124.53;68.50;;;230.90;2252.80;;;;;;5066195;28;20047;-87
2021/03/31 05:33:05;;;;;;;106.78;64.47;;;230.70;2252.80;;;;;;5069077;28;20085;-88
2021/03/31 05:35:31;;;;;;;126.28;67.03;;;230.50;2252.80;;;;;;5063519;28;20031;-88
2021/03/31 05:37:56;;;;;;;93.32;52.35;;;205.70;2252.80;;;;;;5079333;28;20384;-88
2021/03/31 05:40:32;;;;;;;82.68;45.60;;;205.60;2252.80;;;;;;5087194;28;20057;-87
2021/03/31 05:43:16;;;;;;;91.35;47.33;;;205.50;2252.80;;;;;;5089529;28;20020;-87
2021/03/31 05:45:46;;;;;;;85.38;49.10;;;205.40;2252.80;;;;;;5083543;28;20028;-87
2021/03/31 05:48:15;;;;;;;95.47;51.78;;;205.30;2252.80;;;;;;5078508;28;20037;-87
2021/03/31 05:50:43;;;;;;;124.82;64.35;;;205.40;2252.80;;;;;;5080183;28;20021;-87
2021/03/31 05:53:09;;;;;;;131.02;69.85;;;205.30;2252.80;;;;;;5078695;28;20044;-87
2021/03/31 05:55:35;;;;;;;111.07;62.30;;;205.20;2252.80;;;;;;5074862;28;20028;-87
2021/03/31 05:58:03;;;;;;;119.55;63.35;;;205.30;2252.80;;;;;;5074631;28;20024;-88
2021/03/31 06:00:29;;;;;;;103.75;56.58;;;205.20;2252.80;;;;;;5069564;28;20041;-88
2021/03/31 06:03:06;;;;;;;101.30;54.53;;;205.30;2252.80;;;;;;5071367;28;20032;-88
2021/03/31 06:05:32;;;;;;;90.55;50.53;;;205.60;2252.80;;;;;;5073126;28;20051;-89
2021/03/31 06:07:59;;;;;;;86.03;49.42;;;205.70;2252.80;;;;;;5072281;28;20509;-88
2021/03/31 06:10:36;;;;;;;63.72;37.63;;;230.50;2252.80;;;;;;5060112;28;20021;-88
2021/03/31 06:13:13;;;;;;;52.33;30.77;;;230.70;2252.80;;;;;;5076652;28;20035;-88
2021/03/31 06:15:46;;;;;;;55.42;31.50;;;230.50;2252.80;;;;;;5077043;28;20044;-88
2021/03/31 06:18:14;;;;;;;44.97;29.83;;;230.60;2252.80;;;;;;5076858;28;20031;-88
2021/03/31 06:24:21;;;;;;;37.30;24.77;;;230.90;2252.80;;;;;;5399519;22;20470;-89
2021/03/31 06:26:47;;;;;;;38.63;23.20;;;231.00;2252.80;;;;;;5247210;22;20060;-89
2021/03/31 06:39:33;;;;;;;52.47;27.35;;;256.00;2252.80;;;;;;5060468;28;20040;-87
2021/03/31 06:42:14;;;;;;;47.50;26.73;;;256.10;2252.80;;;;;;5056868;28;20037;-87
2021/03/31 06:45:06;;;;;;;45.33;26.27;;;256.30;2252.80;;;;;;5053800;28;20065;-87
2021/03/31 06:50:04;;;;;;;44.53;26.33;;;256.50;2252.80;;;;;;5057016;28;20071;-86
2021/03/31 06:52:30;;;;;;;48.70;27.42;;;256.70;2227.20;;;;;;5058180;28;20025;-86
2021/03/31 06:55:03;;;;;;;44.28;25.10;;;256.90;2227.20;;;;;;5057735;28;20033;-85
2021/03/31 06:57:34;;;;;;;38.70;22.02;;;281.60;2227.20;;;;;;5057254;28;20029;-85
2021/03/31 07:00:07;;;;;;;34.03;22.85;;;281.70;2227.20;;;;;;5054312;28;20110;-85
2021/03/31 07:02:45;;;;;;;35.67;23.02;;;281.90;2201.60;;;;;;5061955;28;20013;-85
2021/03/31 07:05:30;;;;;;;36.85;22.05;;;282.00;2252.80;;;;;;5052717;28;20029;-87
2021/03/31 07:08:28;;;;;;;37.08;25.35;;;282.20;2227.20;;;;;;5050731;28;20044;-86
2021/03/31 07:10:55;;;;;;;41.40;24.70;;;282.40;2176.00;;;;;;5053060;28;20025;-87
2021/03/31 07:13:29;;;;;;;44.60;27.40;;;282.50;2150.40;;;;;;5072182;28;20066;-88
2021/03/31 07:15:56;;;;;;;40.25;26.98;;;307.30;2201.60;;;;;;5097007;28;20024;-88
2021/03/31 07:18:26;;;;;;;43.65;24.60;;;307.40;2150.40;;;;;;5083690;28;20023;-87
2021/03/31 07:20:52;;;;;;;38.42;24.60;;;307.60;2176.00;;;;;;5078010;28;20043;-89
2021/03/31 07:23:21;;;;;;;46.25;24.48;;;307.70;2150.40;;;;;;5075417;28;20024;-87
2021/03/31 07:25:48;;;;;;;35.45;24.13;;;307.80;2176.00;;;;;;5063613;28;20043;-85
2021/03/31 07:28:26;;;;;;;44.03;26.30;;;308.00;2150.40;;;;;;5079101;28;20107;-89
2021/03/31 07:30:53;;;;;;;40.97;25.65;;;308.10;2099.20;;;;;;5083104;28;20555;-87
2021/03/31 07:33:22;;;;;;;42.40;25.75;;;333.00;2124.80;;;;;;5083110;28;20480;-91
2021/03/31 07:35:49;;;;;;;34.35;25.88;;;333.00;2048.00;;;;;;5082464;28;20026;-90
2021/03/31 07:38:20;;;;;;;49.10;25.73;;;333.20;2048.00;;;;;;5080543;28;20028;-88
2021/03/31 07:40:48;;;;;;;40.17;26.45;;;333.40;2022.40;;;;;;5081118;28;20467;-86
2021/03/31 07:43:33;;;;;;;42.85;26.80;;;333.50;1971.20;;;;;;5074757;28;20064;-86
2021/03/31 07:46:18;;;;;;;41.33;27.30;;;333.60;1971.20;;;;;;5063271;28;20025;-87
2021/03/31 07:48:48;;;;;;;41.60;25.55;;;358.40;2022.40;;;;;;5060725;28;20020;-87
2021/03/31 07:51:28;;;;;;;43.97;28.92;;;358.50;2022.40;;;;;;5073339;28;20060;-86
2021/03/31 07:53:56;;;;;;;44.05;25.60;;;358.70;1971.20;;;;;;5080308;28;20051;-84
2021/03/31 07:56:43;;;;;;;41.58;26.10;;;358.90;1971.20;;;;;;5081833;28;20055;-84
2021/03/31 07:59:16;;;;;;;40.75;25.17;;;359.00;1945.60;;;;;;5079762;28;20032;-83
2021/03/31 08:01:58;;;;;;;41.10;22.98;;;359.10;1920.00;;;;;;5068668;28;20032;-83
2021/03/31 08:04:26;;;;;;;23.17;15.73;;;359.30;1894.40;;;;;;5067734;28;20029;-85
2021/03/31 08:06:59;;;;;;;26.13;18.05;;;359.30;1868.80;;;;;;5070062;28;20116;-91
2021/03/31 08:09:32;;;;;;;27.35;18.50;;;384.00;1920.00;;;;;;5071547;28;20032;-85
2021/03/31 08:11:59;;;;;;;28.00;17.35;;;384.20;1894.40;;;;;;5071034;28;20039;-86
2021/03/31 08:14:31;;;;;;;31.08;17.83;;;384.50;1894.40;;;;;;5076565;28;20507;-89
2021/03/31 08:17:06;;;;;;;30.95;18.05;;;384.70;1843.20;;;;;;5059883;28;20476;-86
2021/03/31 08:19:36;;;;;;;28.17;17.05;;;409.60;1843.20;;;;;;5078202;28;20491;-92
2021/03/31 08:22:24;;;;;;;33.80;17.60;;;409.80;1817.60;;;;;;5068814;28;20024;-93
2021/03/31 08:24:55;;;;;;;30.25;16.25;;;409.80;1715.20;;;;;;5080953;28;20044;-88
2021/03/31 08:27:21;;;;;;;30.77;17.42;;;409.80;1715.20;;;;;;5070176;28;20024;-92
2021/03/31 08:29:53;;;;;;;24.05;16.00;;;410.10;1715.20;;;;;;5077146;28;20134;-83
2021/03/31 08:32:20;;;;;;;24.73;17.15;;;409.90;1715.20;;;;;;5097770;28;20051;-89
2021/03/31 08:34:46;;;;;;;20.80;14.13;;;410.20;1689.60;;;;;;5079319;28;20032;-84
2021/03/31 08:37:24;;;;;;;30.15;15.75;;;410.10;1638.40;;;;;;5096982;28;20030;-88
2021/03/31 08:39:51;;;;;;;33.45;14.25;;;410.40;1689.60;;;;;;5075646;28;20040;-86
2021/03/31 08:42:17;;;;;;;27.58;12.85;;;410.40;1689.60;;;;;;5076796;28;20086;-83
2021/03/31 08:44:49;;;;;;;22.17;14.70;;;410.40;1612.80;;;;;;5069292;28;20043;-83
2021/03/31 08:47:16;;;;;;;18.98;14.25;;;410.40;1638.40;;;;;;5058712;28;20108;-84
2021/03/31 08:49:44;;;;;;;25.00;13.55;;;410.30;1587.20;;;;;;5058989;28;20016;-84
2021/03/31 08:52:12;;;;;;;19.00;11.15;;;410.50;1561.60;;;;;;5058964;28;20028;-84
2021/03/31 08:54:43;;;;;;;16.10;10.52;;;435.50;1484.80;;;;;;5058601;28;20055;-85
2021/03/31 08:57:09;;;;;;;16.30;9.73;;;435.60;1433.60;;;;;;5058997;28;20024;-84
2021/03/31 08:59:37;;;;;;;15.18;9.18;;;435.70;1382.40;;;;;;5076471;28;20029;-85
2021/03/31 09:02:04;;;;;;;15.77;9.95;;;435.60;1382.40;;;;;;5058829;28;20032;-85
2021/03/31 09:04:31;;;;;;;13.05;7.72;;;435.80;1356.80;;;;;;5058310;28;20028;-85
2021/03/31 09:06:59;;;;;;;17.05;9.00;;;436.00;1280.00;;;;;;5058855;28;20024;-85
2021/03/31 09:09:35;;;;;;;16.00;8.00;;;436.10;1305.60;;;;;;5076590;28;20470;-84
2021/03/31 09:12:03;;;;;;;21.55;9.77;;;460.90;1305.60;;;;;;5058702;28;20063;-84
2021/03/31 09:14:29;;;;;;;17.80;9.98;;;460.80;1331.20;;;;;;5058914;28;20024;-84
2021/03/31 09:17:18;;;;;;;17.67;9.32;;;436.00;1305.60;;;;;;5074531;28;20169;-84
2021/03/31 09:19:44;;;;;;;13.90;9.27;;;436.10;1331.20;;;;;;5058232;28;20045;-84
2021/03/31 09:22:23;;;;;;;13.02;8.70;;;436.00;1382.40;;;;;;5076327;28;20024;-84
2021/03/31 09:24:55;;;;;;;19.13;9.52;;;460.80;1356.80;;;;;;5058195;28;20119;-84
2021/03/31 09:27:27;;;;;;;24.30;10.37;;;461.00;1331.20;;;;;;5058225;28;20077;-84
2021/03/31 09:29:55;;;;;;;13.50;9.00;;;460.80;1305.60;;;;;;5058125;28;20090;-84
2021/03/31 09:32:27;;;;;;;13.57;8.95;;;461.10;1356.80;;;;;;5043075;28;20044;-84
2021/03/31 09:35:13;;;;;;;22.27;9.98;;;461.00;1356.80;;;;;;5053958;28;20081;-84
2021/03/31 09:37:47;;;;;;;12.02;8.60;;;460.90;1356.80;;;;;;5038321;28;20025;-84
2021/03/31 09:40:23;;;;;;;18.80;10.02;;;461.10;1356.80;;;;;;5037922;28;20460;-84
2021/03/31 09:43:04;;;;;;;15.57;10.07;;;461.30;1382.40;;;;;;5055967;28;20021;-83
2021/03/31 09:45:36;;;;;;;13.15;8.25;;;461.50;1382.40;;;;;;5048173;28;20178;-82
2021/03/31 09:48:04;;;;;;;17.02;10.02;;;461.70;1382.40;;;;;;5057883;28;20119;-86
2021/03/31 09:50:31;;;;;;;16.15;8.77;;;486.60;1382.40;;;;;;5057932;28;20024;-85
2021/03/31 09:53:02;;;;;;;15.70;9.55;;;486.70;1280.00;;;;;;5057625;28;20087;-86
2021/03/31 09:55:28;;;;;;;16.83;9.30;;;486.70;1331.20;;;;;;5054074;28;20029;-85
2021/03/31 09:57:55;;;;;;;20.90;10.38;;;486.80;1356.80;;;;;;5053853;28;20029;-84
2021/03/31 10:00:23;;;;;;;13.30;8.65;;;486.70;1280.00;;;;;;5057294;28;20103;-82
2021/03/31 10:02:50;;;;;;;15.80;8.73;;;486.90;1305.60;;;;;;5069672;28;20078;-83
2021/03/31 10:05:20;;;;;;;19.98;10.13;;;487.20;1305.60;;;;;;5055143;28;20029;-82
2021/03/31 10:07:56;;;;;;;18.35;9.48;;;487.30;1305.60;;;;;;5069498;28;20024;-84
2021/03/31 10:10:40;;;;;;;12.80;8.80;;;487.20;1280.00;;;;;;5071718;28;20158;-86
2021/03/31 10:13:06;;;;;;;32.30;15.88;;;486.90;1280.00;;;;;;5057452;28;20038;-85
2021/03/31 10:15:32;;;;;;;17.73;10.45;;;486.90;1305.60;;;;;;5058554;28;20020;-82
2021/03/31 10:17:58;;;;;;;18.27;10.13;;;486.90;1280.00;;;;;;5060198;28;20051;-82
2021/03/31 10:20:37;;;;;;;16.27;10.77;;;486.90;1280.00;;;;;;5057192;28;20074;-83
2021/03/31 10:23:03;;;;;;;18.83;10.10;;;512.00;1305.60;;;;;;5056513;28;20040;-85
2021/03/31 10:25:31;;;;;;;25.20;13.32;;;512.40;1228.80;;;;;;5057080;28;20020;-87
2021/03/31 10:27:58;;;;;;;18.05;11.13;;;512.40;1228.80;;;;;;5056835;28;20032;-84
2021/03/31 10:30:30;;;;;;;17.05;12.90;;;512.50;1203.20;;;;;;5055584;28;20083;-84
2021/03/31 10:32:57;;;;;;;16.92;11.30;;;487.00;1203.20;;;;;;5081086;28;20048;-85
2021/03/31 10:35:57;;;;;;;18.75;11.98;;;487.00;1254.40;;;;;;5064782;28;20073;-84
2021/03/31 10:38:34;;;;;;;23.30;12.00;;;512.10;1228.80;;;;;;5056642;28;20493;-85
2021/03/31 10:52:16;;;;;;;18.08;9.27;;;512.70;1254.40;;;;;;5085720;28;20028;-85
2021/03/31 10:54:41;;;;;;;15.70;8.88;;;512.80;1152.00;;;;;;5074876;28;20124;-85
2021/03/31 10:57:13;;;;;;;13.27;9.25;;;512.50;1203.20;;;;;;5076506;28;20472;-86
2021/03/31 10:59:42;;;;;;;11.88;8.45;;;512.70;1177.60;;;;;;5075615;28;20067;-85
2021/03/31 11:02:09;;;;;;;18.52;8.82;;;512.20;1177.60;;;;;;5076639;28;20032;-85
2021/03/31 11:04:35;;;;;;;15.15;8.80;;;512.20;1177.60;;;;;;5075378;28;20020;-85
2021/03/31 11:07:01;;;;;;;10.23;6.20;;;512.20;1152.00;;;;;;5076434;28;20024;-85
2021/03/31 11:09:29;;;;;;;14.70;7.30;;;512.40;1126.40;;;;;;5076267;28;20158;-85
2021/03/31 11:11:56;;;;;;;16.63;7.70;;;512.60;1100.80;;;;;;5076235;28;20031;-85
2021/03/31 11:14:23;;;;;;;16.77;10.88;;;512.80;1126.40;;;;;;5077327;28;20025;-83
2021/03/31 11:16:56;;;;;;;12.65;7.53;;;512.90;1152.00;;;;;;5076875;28;20038;-84
2021/03/31 11:27:16;;;;;;;14.10;8.77;;;563.40;1177.60;;;;;;5094331;28;20051;-85
2021/03/31 11:29:43;;;;;;;16.50;10.32;;;537.90;1126.40;;;;;;5074626;28;20480;-85
2021/03/31 11:32:08;;;;;;;16.05;11.45;;;512.40;1177.60;;;;;;5062806;28;20059;-85
2021/03/31 11:34:34;;;;;;;15.32;9.75;;;512.50;1203.20;;;;;;5056467;28;20107;-84
2021/03/31 11:37:00;;;;;;;12.98;9.73;;;512.10;1177.60;;;;;;5056072;28;20028;-84
2021/03/31 11:39:26;;;;;;;16.00;8.65;;;512.10;1152.00;;;;;;5055532;28;20024;-86
2021/03/31 11:41:52;;;;;;;13.82;9.52;;;512.20;1152.00;;;;;;5055950;28;20024;-86
2021/03/31 11:44:17;;;;;;;13.98;9.65;;;512.10;1152.00;;;;;;5049808;28;20112;-86
2021/03/31 11:46:43;;;;;;;15.40;8.30;;;512.60;1126.40;;;;;;5047452;28;20120;-84
2021/03/31 11:49:09;;;;;;;12.93;8.70;;;512.90;1126.40;;;;;;5044346;28;20029;-86
2021/03/31 11:51:35;;;;;;;11.90;10.18;;;537.80;1177.60;;;;;;5041051;28;20029;-86
2021/03/31 11:54:00;;;;;;;13.38;9.15;;;537.90;1177.60;;;;;;5040283;28;20025;-85
2021/03/31 11:56:26;;;;;;;10.70;7.40;;;538.10;1177.60;;;;;;5041518;28;20025;-86
2021/03/31 11:58:53;;;;;;;13.63;8.68;;;538.00;1126.40;;;;;;5036065;28;20021;-83
2021/03/31 12:01:19;;;;;;;15.65;7.88;;;538.00;1152.00;;;;;;5053065;28;20036;-85
2021/03/31 12:03:45;;;;;;;10.63;8.43;;;538.00;1152.00;;;;;;5039256;28;20024;-85
2021/03/31 12:06:13;;;;;;;12.07;8.75;;;538.20;1152.00;;;;;;5035134;28;20488;-84
2021/03/31 12:08:46;;;;;;;15.65;9.77;;;538.20;1100.80;;;;;;5053741;28;20021;-84
2021/03/31 12:11:13;;;;;;;10.18;7.97;;;537.80;1126.40;;;;;;5036816;28;20119;-88
2021/03/31 12:13:39;;;;;;;13.60;7.97;;;538.20;1100.80;;;;;;5038393;28;20036;-88
2021/03/31 12:16:05;;;;;;;13.63;7.93;;;563.50;1152.00;;;;;;5053364;28;20084;-81
2021/03/31 12:18:31;;;;;;;14.60;8.25;;;563.90;1100.80;;;;;;5054744;28;20025;-88
2021/03/31 12:20:57;;;;;;;12.55;7.38;;;563.80;1100.80;;;;;;5052135;28;20408;-82
2021/03/31 12:23:22;;;;;;;19.58;9.70;;;564.00;1075.20;;;;;;5054838;28;20029;-87
2021/03/31 12:25:49;;;;;;;12.38;8.73;;;563.70;1049.60;;;;;;5067465;28;20035;-89
2021/03/31 12:28:15;;;;;;;13.45;7.85;;;563.50;1075.20;;;;;;5061164;28;20047;-85
2021/03/31 12:30:41;;;;;;;12.45;9.13;;;538.50;1075.20;;;;;;5069402;28;20128;-91
2021/03/31 12:33:07;;;;;;;13.32;6.85;;;538.50;1100.80;;;;;;5062886;28;20465;-86
2021/03/31 12:35:32;;;;;;;11.68;6.65;;;538.30;1100.80;;;;;;5059863;28;20033;-87
2021/03/31 12:38:01;;;;;;;12.77;6.60;;;538.50;1075.20;;;;;;5063223;28;20127;-85
2021/03/31 12:40:26;;;;;;;12.48;7.88;;;538.40;1100.80;;;;;;5063239;28;20032;-89
2021/03/31 12:42:52;;;;;;;13.07;6.28;;;538.40;1075.20;;;;;;5058943;28;20021;-92
2021/03/31 12:45:18;;;;;;;12.52;6.88;;;538.50;1075.20;;;;;;5059840;28;20033;-84
2021/03/31 12:47:44;;;;;;;9.23;6.45;;;538.50;1075.20;;;;;;5058933;28;20032;-90